createdAt,value
2018-06-12T00:00:56.178Z,83.26
2018-06-12T00:01:56.072Z,83.64
2018-06-12T00:03:49.429Z,82.97
2018-06-12T00:04:49.403Z,83.45
2018-06-12T00:06:42.744Z,83.16
2018-06-12T00:07:42.688Z,83.54
2018-06-12T00:09:36.069Z,83.26
2018-06-12T00:10:36.005Z,83.45
2018-06-12T00:12:29.362Z,83.07
2018-06-12T00:13:29.315Z,83.45
2018-06-12T00:15:23.623Z,83.54
2018-06-12T00:16:23.597Z,83.74
2018-06-12T00:18:16.962Z,83.84
2018-06-12T00:19:16.915Z,83.74
2018-06-12T00:21:10.240Z,84.31
2018-06-12T00:22:10.219Z,84.51
2018-06-12T00:24:03.537Z,84.12
2018-06-12T00:25:03.514Z,83.84
2018-06-12T00:27:02.509Z,83.84
2018-06-12T00:28:02.512Z,84.22
2018-06-12T00:29:02.473Z,84.12
2018-06-12T00:30:02.450Z,84.22
2018-06-12T00:31:02.440Z,83.89
2018-06-12T00:32:02.373Z,84.27
2018-06-12T00:33:02.382Z,84.27
2018-06-12T00:34:02.352Z,83.89
2018-06-12T00:35:02.317Z,84.22
2018-06-12T00:36:02.283Z,84.08
2018-06-12T00:37:02.273Z,83.89
2018-06-12T00:38:02.269Z,84.08
2018-06-12T00:39:02.211Z,83.80
2018-06-12T00:40:02.197Z,84.37
2018-06-12T00:41:02.154Z,83.98
2018-06-12T00:42:02.134Z,83.84
2018-06-12T00:43:02.142Z,83.84
2018-06-12T00:44:02.102Z,84.31
2018-06-12T00:45:02.061Z,84.08
2018-06-12T00:46:02.040Z,84.08
2018-06-12T00:47:02.018Z,83.89
2018-06-12T00:48:01.985Z,84.22
2018-06-12T00:49:01.941Z,84.08
2018-06-12T00:50:01.929Z,84.12
2018-06-12T00:51:01.907Z,83.93
2018-06-12T00:52:01.885Z,84.27
2018-06-12T00:53:01.856Z,83.70
2018-06-12T00:54:01.828Z,83.80
2018-06-12T00:55:01.792Z,84.08
2018-06-12T00:56:01.772Z,84.27
2018-06-12T00:57:01.741Z,84.85
2018-06-12T00:58:01.721Z,84.18
2018-06-12T00:59:01.702Z,84.85
2018-06-12T01:00:01.735Z,84.75
2018-06-12T01:01:01.646Z,84.85
2018-06-12T01:02:01.614Z,84.18
2018-06-12T01:03:01.585Z,83.80
2018-06-12T01:04:01.581Z,83.75
2018-06-12T01:05:01.715Z,84.71
2018-06-12T01:06:01.515Z,84.75
2018-06-12T01:07:01.541Z,84.71
2018-06-12T01:08:01.458Z,84.33
2018-06-12T01:09:01.453Z,84.81
2018-06-12T01:10:01.406Z,84.81
2018-06-12T01:11:01.379Z,84.42
2018-06-12T01:12:01.362Z,84.81
2018-06-12T01:13:01.350Z,84.66
2018-06-12T01:14:01.305Z,84.81
2018-06-12T01:15:01.289Z,84.42
2018-06-12T01:16:01.259Z,84.71
2018-06-12T01:17:01.223Z,84.23
2018-06-12T01:18:01.200Z,84.81
2018-06-12T01:19:01.183Z,85.00
2018-06-12T01:20:01.151Z,84.56
2018-06-12T01:21:01.123Z,84.37
2018-06-12T01:22:01.092Z,84.71
2018-06-12T01:23:01.075Z,84.66
2018-06-12T01:24:01.056Z,85.04
2018-06-12T01:25:01.036Z,84.66
2018-06-12T01:26:01.013Z,84.66
2018-06-12T01:27:00.963Z,84.47
2018-06-12T01:28:00.953Z,84.81
2018-06-12T01:29:00.922Z,84.61
2018-06-12T01:30:00.890Z,84.61
2018-06-12T01:31:00.873Z,84.81
2018-06-12T01:32:00.842Z,84.71
2018-06-12T01:33:00.818Z,84.71
2018-06-12T01:34:00.792Z,85.00
2018-06-12T01:35:00.760Z,84.81
2018-06-12T01:36:00.735Z,84.81
2018-06-12T01:37:00.711Z,84.81
2018-06-12T01:38:00.707Z,84.71
2018-06-12T01:39:00.660Z,84.61
2018-06-12T01:40:00.636Z,84.71
2018-06-12T01:41:00.607Z,84.61
2018-06-12T01:42:00.577Z,84.91
2018-06-12T01:43:00.562Z,84.33
2018-06-12T01:44:00.531Z,84.61
2018-06-12T01:45:00.506Z,84.81
2018-06-12T01:46:00.497Z,84.71
2018-06-12T01:47:00.451Z,84.81
2018-06-12T01:48:00.430Z,84.91
2018-06-12T01:49:00.399Z,84.81
2018-06-12T01:50:00.398Z,84.61
2018-06-12T01:51:00.380Z,84.52
2018-06-12T01:52:00.327Z,84.71
2018-06-12T01:53:00.300Z,84.61
2018-06-12T01:54:00.295Z,85.00
2018-06-12T01:55:00.244Z,84.81
2018-06-12T01:56:00.220Z,84.61
2018-06-12T01:57:00.200Z,84.71
2018-06-12T01:58:00.169Z,85.00
2018-06-12T01:59:00.143Z,84.61
2018-06-12T02:00:00.131Z,84.71
2018-06-12T02:01:00.095Z,84.71
2018-06-12T02:02:00.058Z,84.91
2018-06-12T02:03:00.073Z,84.52
2018-06-12T02:04:00.040Z,84.71
2018-06-12T02:04:59.987Z,84.61
2018-06-12T02:05:59.964Z,84.81
2018-06-12T02:06:59.930Z,85.00
2018-06-12T02:07:59.904Z,84.61
2018-06-12T02:08:59.878Z,84.33
2018-06-12T02:13:05.667Z,84.81
2018-06-12T02:14:05.637Z,84.71
2018-06-12T02:15:59.067Z,84.81
2018-06-12T02:16:58.915Z,84.81
2018-06-12T02:18:54.296Z,84.81
2018-06-12T02:19:54.221Z,84.71
2018-06-12T02:21:48.536Z,84.81
2018-06-12T02:22:48.535Z,85.00
2018-06-12T02:24:41.860Z,84.91
2018-06-12T02:25:41.808Z,84.91
2018-06-12T02:27:35.159Z,84.81
2018-06-12T02:28:35.147Z,84.61
2018-06-12T02:30:29.457Z,84.81
2018-06-12T02:31:29.402Z,84.52
2018-06-12T02:33:22.774Z,85.00
2018-06-12T02:34:22.836Z,84.91
2018-06-12T02:36:16.090Z,85.00
2018-06-12T02:37:16.037Z,84.71
2018-06-12T02:39:09.365Z,85.05
2018-06-12T02:40:09.332Z,84.91
2018-06-12T02:42:02.706Z,84.86
2018-06-12T02:43:02.666Z,85.19
2018-06-12T02:44:55.976Z,84.86
2018-06-12T02:45:55.971Z,85.05
2018-06-12T02:47:49.314Z,84.77
2018-06-12T02:48:49.241Z,84.86
2018-06-12T02:49:49.220Z,84.95
2018-06-12T02:50:49.195Z,84.77
2018-06-12T02:51:49.169Z,84.81
2018-06-12T02:52:49.154Z,84.81
2018-06-12T02:53:49.113Z,84.81
2018-06-12T02:54:49.086Z,84.71
2018-06-12T02:55:49.059Z,84.71
2018-06-12T02:56:49.068Z,84.91
2018-06-12T02:57:48.999Z,84.77
2018-06-12T02:58:48.981Z,84.91
2018-06-12T02:59:48.947Z,84.67
2018-06-12T03:00:48.927Z,85.25
2018-06-12T03:01:48.907Z,84.67
2018-06-12T03:02:48.871Z,84.86
2018-06-12T03:03:48.842Z,85.05
2018-06-12T03:04:48.822Z,84.77
2018-06-12T03:05:48.821Z,85.34
2018-06-12T03:06:48.763Z,84.58
2018-06-12T03:07:48.744Z,84.95
2018-06-12T03:08:48.717Z,85.15
2018-06-12T03:09:48.683Z,85.15
2018-06-12T03:10:48.660Z,84.95
2018-06-12T03:11:48.672Z,85.15
2018-06-12T03:12:48.626Z,85.15
2018-06-12T03:13:48.598Z,85.05
2018-06-12T03:14:48.560Z,84.58
2018-06-12T03:15:48.576Z,85.15
2018-06-12T03:16:48.534Z,85.05
2018-06-12T03:17:48.492Z,85.44
2018-06-12T03:18:48.461Z,85.05
2018-06-12T03:19:48.437Z,85.34
2018-06-12T03:20:48.421Z,85.25
2018-06-12T03:21:48.388Z,85.44
2018-06-12T03:22:48.400Z,85.53
2018-06-12T03:23:48.327Z,84.58
2018-06-12T03:24:48.292Z,85.34
2018-06-12T03:25:48.278Z,85.05
2018-06-12T03:26:48.256Z,85.63
2018-06-12T03:27:48.217Z,85.53
2018-06-12T03:28:48.192Z,85.05
2018-06-12T03:29:48.170Z,85.34
2018-06-12T03:30:48.166Z,84.77
2018-06-12T03:31:48.136Z,85.34
2018-06-12T03:32:48.089Z,85.25
2018-06-12T03:33:48.085Z,85.63
2018-06-12T03:34:48.036Z,85.30
2018-06-12T03:35:48.005Z,85.21
2018-06-12T03:36:48.014Z,85.25
2018-06-12T03:37:47.969Z,85.15
2018-06-12T03:38:47.930Z,85.25
2018-06-12T03:39:47.909Z,85.34
2018-06-12T03:40:47.888Z,85.15
2018-06-12T03:41:47.849Z,85.25
2018-06-12T03:42:47.847Z,85.05
2018-06-12T03:43:47.807Z,84.95
2018-06-12T03:44:47.808Z,85.39
2018-06-12T03:45:47.762Z,85.39
2018-06-12T03:46:47.722Z,85.39
2018-06-12T03:47:47.688Z,84.82
2018-06-12T03:48:47.693Z,85.44
2018-06-12T03:49:47.642Z,85.34
2018-06-12T03:50:47.638Z,85.58
2018-06-12T03:51:47.597Z,85.30
2018-06-12T03:52:47.562Z,85.15
2018-06-12T03:53:47.537Z,85.39
2018-06-12T03:54:47.515Z,85.05
2018-06-12T03:55:47.490Z,85.01
2018-06-12T03:56:47.460Z,85.21
2018-06-12T03:57:47.429Z,84.91
2018-06-12T03:58:47.402Z,85.49
2018-06-12T03:59:47.372Z,85.11
2018-06-12T04:00:47.369Z,84.53
2018-06-12T04:01:47.323Z,84.82
2018-06-12T04:02:47.305Z,85.21
2018-06-12T04:03:47.295Z,85.11
2018-06-12T04:04:47.245Z,85.49
2018-06-12T04:05:47.218Z,85.21
2018-06-12T04:06:47.207Z,85.30
2018-06-12T04:07:47.257Z,85.44
2018-06-12T04:08:47.143Z,85.15
2018-06-12T04:09:47.111Z,85.15
2018-06-12T04:10:47.085Z,85.30
2018-06-12T04:11:47.070Z,85.30
2018-06-12T04:12:47.035Z,85.11
2018-06-12T04:13:47.005Z,85.39
2018-06-12T04:14:47.070Z,85.21
2018-06-12T04:15:46.969Z,85.39
2018-06-12T04:16:46.935Z,85.30
2018-06-12T04:17:46.904Z,85.30
2018-06-12T04:18:46.883Z,85.21
2018-06-12T04:19:46.865Z,85.30
2018-06-12T04:20:46.821Z,85.39
2018-06-12T04:21:46.798Z,85.21
2018-06-12T04:22:46.768Z,85.11
2018-06-12T04:23:46.739Z,85.01
2018-06-12T04:24:46.713Z,85.39
2018-06-12T04:25:46.691Z,85.39
2018-06-12T04:26:46.659Z,85.39
2018-06-12T04:27:46.636Z,85.39
2018-06-12T04:28:46.621Z,85.01
2018-06-12T04:29:46.614Z,85.11
2018-06-12T04:30:46.556Z,85.01
2018-06-12T04:31:46.565Z,85.21
2018-06-12T04:32:46.499Z,85.30
2018-06-12T04:33:46.472Z,85.21
2018-06-12T04:34:46.458Z,85.21
2018-06-12T04:35:46.422Z,85.11
2018-06-12T04:36:46.407Z,85.39
2018-06-12T04:37:46.385Z,85.39
2018-06-12T04:38:46.354Z,85.21
2018-06-12T04:39:46.321Z,85.30
2018-06-12T04:40:46.306Z,85.21
2018-06-12T04:41:46.264Z,85.39
2018-06-12T04:42:46.238Z,85.21
2018-06-12T04:43:46.211Z,85.15
2018-06-12T04:44:46.188Z,85.25
2018-06-12T04:45:46.157Z,84.95
2018-06-12T04:46:46.135Z,85.05
2018-06-12T04:47:46.106Z,85.53
2018-06-12T04:48:46.084Z,85.63
2018-06-12T04:49:46.136Z,85.34
2018-06-12T04:50:46.161Z,85.34
2018-06-12T04:51:46.049Z,85.34
2018-06-12T04:52:45.979Z,85.44
2018-06-12T04:53:45.950Z,84.95
2018-06-12T04:54:45.928Z,85.34
2018-06-12T04:55:45.900Z,85.25
2018-06-12T04:56:45.876Z,84.95
2018-06-12T04:57:45.853Z,85.15
2018-06-12T04:58:45.917Z,84.82
2018-06-12T04:59:45.876Z,85.30
2018-06-12T05:00:45.800Z,84.72
2018-06-12T05:01:45.740Z,85.21
2018-06-12T05:02:45.725Z,85.21
2018-06-12T05:03:45.699Z,85.39
2018-06-12T05:04:45.653Z,85.21
2018-06-12T05:05:45.627Z,85.21
2018-06-12T05:06:45.610Z,85.11
2018-06-12T05:07:45.584Z,85.30
2018-06-12T05:08:45.562Z,85.30
2018-06-12T05:09:45.541Z,85.30
2018-06-12T05:10:45.506Z,85.05
2018-06-12T05:11:45.487Z,85.15
2018-06-12T05:12:45.460Z,85.25
2018-06-12T05:13:45.429Z,85.53
2018-06-12T05:14:45.403Z,85.63
2018-06-12T05:15:45.373Z,85.05
2018-06-12T05:16:45.337Z,85.25
2018-06-12T05:17:45.320Z,84.95
2018-06-12T05:18:45.295Z,84.95
2018-06-12T05:19:45.370Z,85.44
2018-06-12T05:20:45.238Z,85.05
2018-06-12T05:21:45.214Z,85.05
2018-06-12T05:22:45.181Z,84.58
2018-06-12T05:23:45.160Z,84.67
2018-06-12T05:24:45.145Z,84.77
2018-06-12T05:25:45.115Z,84.28
2018-06-12T05:26:45.091Z,84.77
2018-06-12T05:27:45.058Z,84.42
2018-06-12T05:28:45.027Z,84.52
2018-06-12T05:29:45.001Z,84.61
2018-06-12T05:30:45.002Z,84.04
2018-06-12T05:31:44.953Z,84.33
2018-06-12T05:32:44.930Z,84.42
2018-06-12T05:33:44.895Z,84.23
2018-06-12T05:34:44.893Z,84.23
2018-06-12T05:35:44.848Z,84.00
2018-06-12T05:36:44.838Z,84.71
2018-06-12T05:37:44.803Z,83.94
2018-06-12T05:38:44.774Z,84.14
2018-06-12T05:39:44.756Z,83.75
2018-06-12T05:40:44.740Z,83.47
2018-06-12T05:41:44.694Z,83.65
2018-06-12T05:42:44.669Z,83.65
2018-06-12T05:43:44.649Z,83.27
2018-06-12T05:44:44.618Z,83.37
2018-06-12T05:45:44.593Z,83.65
2018-06-12T05:46:44.582Z,83.65
2018-06-12T05:47:44.534Z,83.47
2018-06-12T05:48:44.508Z,83.65
2018-06-12T05:49:44.551Z,83.56
2018-06-12T05:50:44.460Z,83.27
2018-06-12T05:51:44.434Z,83.18
2018-06-12T05:52:44.407Z,83.27
2018-06-12T05:53:44.378Z,83.56
2018-06-12T05:54:44.352Z,83.65
2018-06-12T05:55:44.387Z,83.65
2018-06-12T05:56:44.310Z,83.65
2018-06-12T05:57:44.284Z,83.47
2018-06-12T05:58:44.255Z,83.37
2018-06-12T05:59:44.236Z,83.65
2018-06-12T06:00:44.224Z,83.56
2018-06-12T06:01:44.189Z,83.18
2018-06-12T06:02:44.158Z,83.65
2018-06-12T06:03:44.131Z,83.56
2018-06-12T06:04:44.116Z,83.75
2018-06-12T06:05:44.090Z,83.27
2018-06-12T06:06:44.045Z,83.65
2018-06-12T06:07:44.038Z,83.08
2018-06-12T06:08:43.998Z,83.65
2018-06-12T06:09:43.974Z,83.08
2018-06-12T06:10:43.969Z,83.08
2018-06-12T06:11:43.970Z,83.18
2018-06-12T06:12:43.992Z,83.27
2018-06-12T06:13:43.863Z,83.08
2018-06-12T06:14:43.844Z,83.80
2018-06-12T06:15:43.832Z,83.18
2018-06-12T06:16:43.893Z,83.08
2018-06-12T06:17:43.772Z,83.51
2018-06-12T06:18:43.744Z,82.45
2018-06-12T06:19:43.711Z,82.54
2018-06-12T06:20:43.686Z,82.64
2018-06-12T06:21:43.665Z,82.74
2018-06-12T06:22:43.691Z,82.74
2018-06-12T06:23:43.609Z,82.54
2018-06-12T06:24:43.604Z,82.51
2018-06-12T06:25:43.567Z,82.21
2018-06-12T06:26:43.543Z,82.60
2018-06-12T06:27:43.522Z,83.18
2018-06-12T06:28:43.487Z,82.51
2018-06-12T06:29:43.483Z,82.84
2018-06-12T06:30:43.448Z,82.35
2018-06-12T06:31:43.406Z,82.54
2018-06-12T06:32:43.382Z,82.74
2018-06-12T06:33:43.359Z,82.74
2018-06-12T06:34:43.328Z,82.35
2018-06-12T06:35:43.316Z,82.26
2018-06-12T06:36:43.287Z,82.16
2018-06-12T06:37:43.252Z,81.87
2018-06-12T06:38:43.325Z,81.87
2018-06-12T06:39:43.205Z,82.54
2018-06-12T06:40:43.315Z,82.16
2018-06-12T06:41:43.158Z,82.07
2018-06-12T06:42:43.154Z,81.64
2018-06-12T06:43:43.104Z,82.03
2018-06-12T06:44:43.085Z,82.21
2018-06-12T06:45:43.056Z,82.07
2018-06-12T06:46:43.025Z,81.87
2018-06-12T06:47:43.006Z,81.78
2018-06-12T06:48:42.985Z,82.07
2018-06-12T06:49:42.956Z,82.26
2018-06-12T06:50:42.924Z,81.68
2018-06-12T06:51:42.904Z,82.54
2018-06-12T06:52:42.876Z,81.87
2018-06-12T06:53:42.925Z,81.20
2018-06-12T06:54:42.986Z,80.91
2018-06-12T06:55:42.796Z,81.20
2018-06-12T06:56:42.776Z,81.78
2018-06-12T06:57:42.755Z,81.87
2018-06-12T06:58:42.733Z,81.97
2018-06-12T06:59:42.715Z,81.68
2018-06-12T07:00:42.683Z,81.30
2018-06-12T07:01:42.655Z,81.40
2018-06-12T07:02:42.636Z,81.40
2018-06-12T07:03:42.599Z,81.30
2018-06-12T07:04:42.569Z,81.87
2018-06-12T07:05:42.541Z,81.40
2018-06-12T07:06:42.567Z,81.49
2018-06-12T07:07:42.502Z,81.68
2018-06-12T07:08:42.476Z,81.43
2018-06-12T07:09:42.446Z,81.30
2018-06-12T07:10:42.422Z,81.10
2018-06-12T07:11:42.396Z,81.40
2018-06-12T07:12:42.424Z,81.26
2018-06-12T07:13:42.431Z,80.97
2018-06-12T07:14:42.432Z,81.97
2018-06-12T07:15:42.394Z,81.59
2018-06-12T07:16:42.286Z,81.59
2018-06-12T07:17:42.244Z,81.97
2018-06-12T07:18:42.221Z,81.78
2018-06-12T07:19:42.218Z,81.10
2018-06-12T07:20:42.185Z,80.91
2018-06-12T07:21:42.147Z,81.34
2018-06-12T07:22:42.124Z,80.86
2018-06-12T07:23:42.108Z,80.86
2018-06-12T07:24:42.069Z,80.96
2018-06-12T07:25:42.056Z,80.28
2018-06-12T07:26:42.025Z,80.76
2018-06-12T07:27:41.994Z,80.86
2018-06-12T07:28:41.986Z,80.38
2018-06-12T07:29:41.940Z,80.66
2018-06-12T07:30:41.916Z,80.86
2018-06-12T07:31:41.897Z,80.57
2018-06-12T07:32:41.876Z,80.32
2018-06-12T07:33:41.848Z,80.13
2018-06-12T07:34:41.836Z,80.22
2018-06-12T07:35:41.800Z,79.55
2018-06-12T07:36:41.774Z,79.65
2018-06-12T07:37:41.827Z,79.94
2018-06-12T07:38:41.732Z,79.94
2018-06-12T07:39:41.700Z,80.61
2018-06-12T07:40:41.684Z,79.94
2018-06-12T07:41:41.650Z,80.61
2018-06-12T07:42:41.625Z,79.55
2018-06-12T07:43:41.639Z,79.75
2018-06-12T07:44:41.590Z,79.75
2018-06-12T07:45:41.552Z,79.46
2018-06-12T07:46:41.558Z,80.04
2018-06-12T07:47:41.533Z,79.69
2018-06-12T07:48:41.484Z,79.21
2018-06-12T07:49:41.453Z,79.79
2018-06-12T07:50:41.434Z,79.69
2018-06-12T07:51:41.410Z,79.30
2018-06-12T07:52:41.383Z,78.83
2018-06-12T07:53:41.363Z,80.13
2018-06-12T07:54:41.332Z,79.40
2018-06-12T07:55:41.306Z,79.69
2018-06-12T07:56:41.289Z,79.40
2018-06-12T07:57:41.264Z,79.60
2018-06-12T07:58:41.236Z,79.79
2018-06-12T07:59:41.223Z,79.40
2018-06-12T08:00:41.185Z,78.92
2018-06-12T08:01:41.163Z,79.02
2018-06-12T08:02:41.144Z,79.60
2018-06-12T08:03:41.127Z,79.21
2018-06-12T08:04:41.097Z,79.60
2018-06-12T08:05:41.078Z,79.02
2018-06-12T08:06:41.053Z,78.77
2018-06-12T08:07:41.021Z,79.44
2018-06-12T08:08:40.998Z,79.25
2018-06-12T08:09:40.973Z,78.28
2018-06-12T08:10:40.951Z,79.05
2018-06-12T08:11:40.928Z,79.44
2018-06-12T08:12:40.911Z,78.92
2018-06-12T08:13:40.879Z,79.53
2018-06-12T08:14:40.855Z,79.69
2018-06-12T08:15:40.838Z,79.15
2018-06-12T08:16:40.817Z,79.05
2018-06-12T08:17:40.788Z,79.15
2018-06-12T08:18:40.858Z,79.35
2018-06-12T08:19:40.758Z,78.96
2018-06-12T08:20:40.772Z,78.90
2018-06-12T08:21:40.698Z,78.90
2018-06-12T08:22:40.696Z,79.48
2018-06-12T08:23:40.649Z,78.61
2018-06-12T08:24:40.627Z,78.61
2018-06-12T08:25:40.609Z,77.61
2018-06-12T08:26:40.579Z,78.77
2018-06-12T08:27:40.549Z,79.05
2018-06-12T08:28:40.527Z,79.10
2018-06-12T08:29:40.547Z,78.52
2018-06-12T08:30:40.528Z,79.10
2018-06-12T08:31:40.455Z,78.42
2018-06-12T08:32:40.428Z,78.52
2018-06-12T08:33:40.424Z,77.65
2018-06-12T08:34:40.388Z,78.13
2018-06-12T08:35:40.408Z,78.42
2018-06-12T08:36:40.344Z,79.19
2018-06-12T08:37:40.318Z,78.17
2018-06-12T08:38:40.293Z,78.08
2018-06-12T08:39:40.304Z,78.27
2018-06-12T08:40:40.242Z,78.27
2018-06-12T08:41:40.223Z,77.88
2018-06-12T08:42:40.201Z,78.46
2018-06-12T08:43:40.181Z,78.08
2018-06-12T08:44:40.154Z,78.27
2018-06-12T08:45:40.130Z,77.69
2018-06-12T08:46:40.115Z,78.31
2018-06-12T08:47:40.083Z,77.98
2018-06-12T08:48:40.070Z,77.53
2018-06-12T08:49:40.054Z,78.02
2018-06-12T08:50:40.026Z,77.63
2018-06-12T08:51:39.992Z,77.06
2018-06-12T08:52:39.968Z,77.53
2018-06-12T08:53:39.952Z,77.31
2018-06-12T08:54:39.921Z,77.78
2018-06-12T08:55:39.910Z,77.40
2018-06-12T08:56:39.893Z,77.53
2018-06-12T08:57:39.857Z,77.53
2018-06-12T08:58:39.842Z,77.34
2018-06-12T08:59:39.814Z,77.15
2018-06-12T09:00:39.808Z,76.90
2018-06-12T09:01:39.769Z,77.15
2018-06-12T09:02:39.815Z,77.25
2018-06-12T09:03:39.733Z,77.53
2018-06-12T09:04:39.692Z,77.53
2018-06-12T09:05:39.676Z,77.06
2018-06-12T09:06:39.661Z,77.15
2018-06-12T09:07:39.653Z,76.96
2018-06-12T09:08:39.611Z,77.40
2018-06-12T09:09:39.588Z,77.31
2018-06-12T09:10:39.583Z,78.27
2018-06-12T09:11:39.543Z,77.44
2018-06-12T09:12:39.522Z,78.08
2018-06-12T09:13:39.509Z,77.50
2018-06-12T09:14:39.476Z,77.50
2018-06-12T09:15:39.450Z,77.78
2018-06-12T09:16:39.442Z,77.59
2018-06-12T09:17:39.410Z,77.98
2018-06-12T09:18:39.380Z,77.98
2018-06-12T09:19:39.364Z,78.21
2018-06-12T09:20:39.343Z,77.73
2018-06-12T09:21:39.324Z,77.44
2018-06-12T09:22:39.293Z,77.53
2018-06-12T09:23:39.273Z,77.83
2018-06-12T09:24:39.268Z,76.96
2018-06-12T09:25:39.252Z,76.76
2018-06-12T09:26:39.197Z,75.65
2018-06-12T09:27:39.181Z,76.51
2018-06-12T09:28:39.162Z,75.90
2018-06-12T09:29:39.137Z,76.86
2018-06-12T09:30:39.121Z,76.57
2018-06-12T09:31:39.117Z,76.86
2018-06-12T09:32:39.101Z,76.61
2018-06-12T09:33:39.046Z,77.09
2018-06-12T09:34:39.049Z,76.03
2018-06-12T09:35:39.066Z,76.09
2018-06-12T09:36:38.980Z,76.57
2018-06-12T09:37:38.982Z,76.38
2018-06-12T09:38:38.942Z,76.96
2018-06-12T09:39:38.919Z,77.06
2018-06-12T09:40:38.886Z,76.48
2018-06-12T09:41:38.868Z,76.18
2018-06-12T09:42:38.850Z,76.80
2018-06-12T09:43:38.817Z,76.13
2018-06-12T09:44:38.798Z,75.97
2018-06-12T09:45:38.775Z,75.01
2018-06-12T09:46:38.750Z,74.57
2018-06-12T09:47:38.747Z,75.05
2018-06-12T09:48:38.720Z,73.02
2018-06-12T09:49:38.714Z,72.31
2018-06-12T09:50:38.666Z,72.15
2018-06-12T09:51:38.645Z,72.06
2018-06-12T09:52:38.623Z,72.54
2018-06-12T09:53:38.627Z,73.27
2018-06-12T09:54:38.581Z,73.57
2018-06-12T09:55:38.550Z,73.47
2018-06-12T09:56:38.564Z,72.54
2018-06-12T09:57:38.567Z,72.54
2018-06-12T09:58:38.486Z,72.00
2018-06-12T09:59:38.484Z,72.00
2018-06-12T10:00:38.446Z,71.16
2018-06-12T10:01:38.435Z,69.49
2018-06-12T10:02:38.417Z,70.54
2018-06-12T10:03:38.390Z,71.28
2018-06-12T10:04:38.368Z,71.48
2018-06-12T10:05:38.349Z,70.94
2018-06-12T10:06:38.332Z,70.22
2018-06-12T10:07:38.300Z,71.64
2018-06-12T10:08:38.280Z,72.44
2018-06-12T10:09:38.272Z,72.25
2018-06-12T10:10:38.247Z,71.48
2018-06-12T10:11:38.216Z,71.96
2018-06-12T10:12:38.193Z,71.77
2018-06-12T10:13:38.194Z,70.32
2018-06-12T10:14:38.175Z,70.32
2018-06-12T10:15:38.125Z,70.42
2018-06-12T10:16:38.110Z,70.70
2018-06-12T10:17:38.097Z,71.09
2018-06-12T10:18:38.068Z,70.03
2018-06-12T10:19:38.048Z,69.39
2018-06-12T10:20:38.028Z,69.74
2018-06-12T10:21:38.023Z,70.74
2018-06-12T10:22:37.984Z,70.54
2018-06-12T10:23:37.967Z,69.62
2018-06-12T10:24:37.990Z,70.16
2018-06-12T10:25:37.941Z,70.54
2018-06-12T10:26:37.903Z,71.03
2018-06-12T10:27:37.874Z,70.74
2018-06-12T10:28:37.859Z,71.70
2018-06-12T10:29:37.840Z,70.94
2018-06-12T10:30:37.811Z,70.94
2018-06-12T10:31:37.805Z,69.97
2018-06-12T10:32:37.787Z,69.90
2018-06-12T10:33:37.768Z,69.20
2018-06-12T10:34:37.736Z,69.23
2018-06-12T10:35:37.711Z,69.97
2018-06-12T10:36:37.695Z,70.84
2018-06-12T10:37:37.674Z,71.22
2018-06-12T10:38:37.654Z,71.32
2018-06-12T10:39:37.629Z,70.58
2018-06-12T10:40:37.619Z,69.87
2018-06-12T10:41:37.586Z,71.06
2018-06-12T10:42:37.566Z,69.13
2018-06-12T10:43:37.581Z,69.36
2018-06-12T10:44:37.524Z,69.46
2018-06-12T10:45:37.593Z,67.33
2018-06-12T10:46:37.484Z,68.20
2018-06-12T10:47:37.494Z,67.94
2018-06-12T10:48:37.467Z,67.52
2018-06-12T10:49:37.623Z,68.30
2018-06-12T10:50:37.399Z,67.36
2018-06-12T10:51:37.402Z,66.59
2018-06-12T10:52:37.360Z,67.27
2018-06-12T10:53:37.346Z,68.24
2018-06-12T10:54:37.325Z,68.82
2018-06-12T10:55:37.302Z,67.75
2018-06-12T10:56:37.276Z,66.27
2018-06-12T10:57:37.264Z,66.69
2018-06-12T10:58:37.249Z,66.30
2018-06-12T10:59:37.216Z,66.75
2018-06-12T11:00:37.200Z,68.10
2018-06-12T11:01:37.201Z,68.04
2018-06-12T11:02:37.154Z,67.56
2018-06-12T11:03:37.163Z,68.27
2018-06-12T11:04:37.167Z,66.72
2018-06-12T11:05:37.103Z,64.98
2018-06-12T11:06:37.088Z,65.66
2018-06-12T11:07:37.053Z,66.53
2018-06-12T11:08:37.037Z,65.92
2018-06-12T11:09:37.021Z,66.33
2018-06-12T11:10:37.006Z,64.79
2018-06-12T11:11:36.970Z,65.27
2018-06-12T11:12:36.953Z,65.85
2018-06-12T11:13:36.936Z,65.56
2018-06-12T11:14:36.923Z,66.50
2018-06-12T11:15:36.903Z,66.78
2018-06-12T11:16:36.884Z,67.33
2018-06-12T11:17:36.862Z,67.43
2018-06-12T11:18:36.851Z,68.20
2018-06-12T11:19:36.814Z,67.08
2018-06-12T11:20:36.845Z,66.78
2018-06-12T11:21:36.822Z,66.53
2018-06-12T11:22:36.777Z,66.72
2018-06-12T11:23:36.745Z,66.33
2018-06-12T11:24:36.725Z,64.92
2018-06-12T11:25:36.698Z,63.56
2018-06-12T11:26:36.677Z,63.82
2018-06-12T11:27:36.670Z,64.43
2018-06-12T11:28:36.650Z,64.04
2018-06-12T11:29:36.626Z,63.98
2018-06-12T11:30:36.615Z,63.56
2018-06-12T11:31:36.590Z,63.14
2018-06-12T11:32:36.565Z,64.50
2018-06-12T11:33:36.545Z,64.59
2018-06-12T11:34:36.535Z,64.47
2018-06-12T11:35:36.511Z,65.63
2018-06-12T11:36:36.495Z,65.92
2018-06-12T11:37:36.470Z,63.98
2018-06-12T11:38:36.462Z,64.18
2018-06-12T11:39:36.445Z,63.79
2018-06-12T11:40:36.433Z,64.66
2018-06-12T11:41:36.395Z,64.66
2018-06-12T11:42:36.380Z,64.47
2018-06-12T11:43:36.351Z,65.53
2018-06-12T11:44:36.339Z,65.11
2018-06-12T11:45:36.320Z,65.59
2018-06-12T11:46:36.293Z,66.24
2018-06-12T11:47:36.277Z,66.91
2018-06-12T11:48:36.258Z,67.27
2018-06-12T11:49:36.240Z,68.23
2018-06-12T11:50:36.219Z,68.71
2018-06-12T11:51:36.208Z,68.62
2018-06-12T11:52:36.174Z,68.33
2018-06-12T11:53:36.168Z,68.81
2018-06-12T11:54:36.130Z,68.65
2018-06-12T11:55:36.119Z,68.36
2018-06-12T11:56:36.092Z,68.17
2018-06-12T11:57:36.077Z,67.55
2018-06-12T11:58:36.045Z,67.94
2018-06-12T11:59:36.038Z,68.91
2018-06-12T12:00:36.015Z,68.52
2018-06-12T12:01:36.009Z,69.68
2018-06-12T12:02:36.018Z,69.45
2018-06-12T12:03:35.947Z,71.00
2018-06-12T12:04:35.935Z,71.58
2018-06-12T12:05:35.931Z,71.77
2018-06-12T12:06:35.879Z,71.48
2018-06-12T12:07:35.870Z,72.54
2018-06-12T12:08:35.843Z,72.54
2018-06-12T12:09:35.873Z,72.54
2018-06-12T12:10:35.812Z,72.63
2018-06-12T12:11:35.772Z,71.09
2018-06-12T12:12:35.767Z,71.09
2018-06-12T12:13:35.734Z,72.60
2018-06-12T12:14:35.718Z,72.25
2018-06-12T12:15:35.697Z,72.15
2018-06-12T12:16:35.663Z,71.96
2018-06-12T12:17:35.650Z,72.54
2018-06-12T12:18:35.661Z,72.54
2018-06-12T12:19:35.614Z,72.25
2018-06-12T12:20:35.587Z,73.47
2018-06-12T12:21:35.564Z,73.27
2018-06-12T12:22:35.615Z,73.85
2018-06-12T12:23:35.523Z,74.49
2018-06-12T12:24:35.494Z,74.62
2018-06-12T12:25:35.473Z,74.14
2018-06-12T12:26:35.509Z,74.24
2018-06-12T12:27:35.452Z,74.14
2018-06-12T12:28:35.461Z,74.62
2018-06-12T12:29:35.388Z,74.40
2018-06-12T12:30:35.369Z,75.26
2018-06-12T12:31:35.343Z,75.45
2018-06-12T12:32:35.323Z,75.30
2018-06-12T12:33:35.299Z,75.26
2018-06-12T12:34:35.278Z,75.93
2018-06-12T12:35:35.247Z,76.80
2018-06-12T12:36:35.233Z,77.09
2018-06-12T12:37:35.209Z,77.09
2018-06-12T12:38:35.186Z,77.58
2018-06-12T12:39:35.168Z,77.76
2018-06-12T12:40:35.142Z,77.58
2018-06-12T12:41:35.128Z,78.06
2018-06-12T12:42:35.112Z,77.19
2018-06-12T12:43:35.111Z,78.25
2018-06-12T12:44:35.054Z,78.54
2018-06-12T12:45:35.032Z,78.34
2018-06-12T12:46:35.012Z,78.83
2018-06-12T12:47:34.983Z,78.25
2018-06-12T12:48:34.965Z,77.76
2018-06-12T12:49:34.941Z,77.44
2018-06-12T12:50:34.923Z,78.15
2018-06-12T12:51:34.909Z,78.06
2018-06-12T12:52:34.879Z,78.31
2018-06-12T12:53:34.928Z,78.34
2018-06-12T12:54:34.833Z,78.34
2018-06-12T12:55:34.806Z,77.76
2018-06-12T12:56:34.801Z,78.21
2018-06-12T12:57:34.765Z,78.50
2018-06-12T12:58:34.748Z,77.92
2018-06-12T12:59:34.724Z,78.79
2018-06-12T13:00:34.700Z,78.15
2018-06-12T13:01:34.686Z,77.83
2018-06-12T13:02:34.650Z,78.31
2018-06-12T13:03:34.636Z,78.02
2018-06-12T13:04:34.615Z,77.83
2018-06-12T13:05:34.590Z,77.83
2018-06-12T13:06:34.567Z,77.73
2018-06-12T13:07:34.583Z,78.31
2018-06-12T13:08:34.518Z,78.08
2018-06-12T13:09:34.524Z,78.17
2018-06-12T13:10:34.486Z,78.85
2018-06-12T13:11:34.455Z,77.98
2018-06-12T13:12:34.432Z,77.98
2018-06-12T13:13:34.411Z,78.46
2018-06-12T13:14:34.388Z,78.36